»·PEaware :: N604S KBUR-KSAN

N604S :: KBUR-KSAN

FLIGHT INFORMATION

Flight Status: Arrived
Operator: Privately registered:
United States
More flights under this callsign
Pilot: Andy P. (22680)
Aircraft: GATES LEARJET LEARJET 35/36
(LJ35)
More flights by this aircraft type
Origin: KBUR Bob Hope-Burbank
United States
Destination: KSAN San Diego Intl-Lindbergh
United States
More flights between these airports :: More routes between these airports
Route: VNY3 TWINE V518 KIMMO V459 SLI SLI171 LAX118 CARDI MZB320 MZB
File this flight plan on PilotEdge
Remarks: TEC ROUTE BURP31
Altitude:
(Current/Filed)
11,000ft
Speed:
(Current/Filed)
465kts
Departed: 11-Feb-20 03:24 PM
Arrived: 11-Feb-20 03:59 PM
Distance/Time
Traveled:
106nm/0:34
Distance/Time
To Go:
Arrived

Flight Plot

Page will automatically refresh every two minutes.


Map Options




Map Legend


Flown Route
Filed Route
Departure Airport
Arrival Airport
Navaid (VOR, NDB)
Fix

Horizontal Profiles

Position Reports

Time Latitude Longitude Heading Altitude Ground
Speed
11-Feb-20 14:52 34.200212 -118.364601 89 723ft 0kts
11-Feb-20 14:53 34.200212 -118.364601 89 723ft 0kts
11-Feb-20 14:54 34.200212 -118.364601 89 723ft 0kts
11-Feb-20 14:55 34.200212 -118.364601 89 723ft 0kts
11-Feb-20 14:56 34.200212 -118.364601 89 723ft 0kts
11-Feb-20 14:57 34.200212 -118.364601 89 723ft 0kts
11-Feb-20 14:58 34.200212 -118.364601 89 723ft 0kts
11-Feb-20 14:59 34.200212 -118.364601 89 723ft 0kts
11-Feb-20 15:00 34.200212 -118.364601 89 723ft 0kts
11-Feb-20 15:01 34.200212 -118.364601 89 723ft 0kts
11-Feb-20 15:02 34.200212 -118.364601 89 723ft 0kts
11-Feb-20 15:03 34.200212 -118.364601 89 723ft 0kts
11-Feb-20 15:04 34.200212 -118.364601 89 723ft 0kts
11-Feb-20 15:06 34.200212 -118.364601 89 723ft 0kts
11-Feb-20 15:07 34.200212 -118.364601 89 723ft 0kts
11-Feb-20 15:08 34.200212 -118.364601 89 723ft 0kts
11-Feb-20 15:09 34.200212 -118.364601 89 723ft 0kts
11-Feb-20 15:10 34.200212 -118.364601 89 723ft 0kts
11-Feb-20 15:11 34.200212 -118.364601 89 723ft 0kts
11-Feb-20 15:12 34.200212 -118.364601 89 723ft 0kts
11-Feb-20 15:13 34.200212 -118.364601 89 723ft 0kts
11-Feb-20 15:14 34.200212 -118.364601 89 723ft 0kts
11-Feb-20 15:15 34.200212 -118.364601 89 723ft 0kts
11-Feb-20 15:16 34.200212 -118.364601 89 723ft 0kts
11-Feb-20 15:17 34.200212 -118.364601 89 723ft 0kts
11-Feb-20 15:18 34.200212 -118.364601 89 723ft 0kts
11-Feb-20 15:19 34.200212 -118.364598 89 723ft 0kts
11-Feb-20 15:20 34.200212 -118.364595 89 723ft 0kts
11-Feb-20 15:21 34.200212 -118.364593 89 723ft 0kts
11-Feb-20 15:22 34.200197 -118.364474 120 723ft 3kts
11-Feb-20 15:23 34.199071 -118.367241 271 723ft 14kts
11-Feb-20 15:24 34.197862 -118.366533 93 724ft 55kts
11-Feb-20 15:25 34.182422 -118.328995 168 2156ft 166kts
11-Feb-20 15:25 34.148232 -118.356296 231 4164ft 214kts
11-Feb-20 15:27 34.139867 -118.440812 271 7032ft 236kts
11-Feb-20 15:28 34.167153 -118.511382 329 9254ft 255kts
11-Feb-20 15:28 34.219544 -118.549307 331 10914ft 277kts
11-Feb-20 15:30 34.309293 -118.577640 18 11008ft 304kts
11-Feb-20 15:30 34.356303 -118.515484 57 11021ft 314kts
11-Feb-20 15:31 34.400878 -118.425866 69 11173ft 307kts
11-Feb-20 15:32 34.354123 -118.368186 179 11006ft 250kts
11-Feb-20 15:33 34.289805 -118.346619 153 11029ft 240kts
11-Feb-20 15:34 34.222249 -118.307812 152 11009ft 305kts
11-Feb-20 15:35 34.139196 -118.259718 152 11007ft 351kts
11-Feb-20 15:36 34.066525 -118.217701 152 10990ft 367kts
11-Feb-20 15:37 33.975655 -118.165264 152 10980ft 346kts
11-Feb-20 15:38 33.892132 -118.117202 152 10978ft 322kts
11-Feb-20 15:39 33.806227 -118.095653 160 10992ft 310kts
11-Feb-20 15:40 33.728007 -118.065454 174 10984ft 290kts
11-Feb-20 15:41 33.645812 -118.071166 173 10991ft 305kts
11-Feb-20 15:42 33.582434 -118.009273 124 11008ft 303kts
11-Feb-20 15:43 33.527188 -117.930373 127 11007ft 316kts
11-Feb-20 15:44 33.467502 -117.851091 128 10999ft 324kts
11-Feb-20 15:45 33.405823 -117.770555 128 11005ft 333kts
11-Feb-20 15:46 33.342090 -117.687944 128 11015ft 341kts
11-Feb-20 15:47 33.276991 -117.604353 129 11010ft 345kts
11-Feb-20 15:48 33.211078 -117.520619 128 11013ft 346kts
11-Feb-20 15:49 33.145195 -117.436300 133 10969ft 350kts
11-Feb-20 15:50 33.059158 -117.379403 152 10974ft 356kts
11-Feb-20 15:51 32.970242 -117.330761 152 10966ft 338kts
11-Feb-20 15:52 32.899495 -117.291636 152 9753ft 296kts
11-Feb-20 15:53 32.827214 -117.253442 155 6652ft 280kts
11-Feb-20 15:54 32.777632 -117.204637 108 4081ft 190kts
11-Feb-20 15:55 32.759666 -117.155435 108 2734ft 148kts
11-Feb-20 15:56 32.737025 -117.123221 202 1493ft 146kts
11-Feb-20 15:57 32.727477 -117.162318 284 417ft 128kts
11-Feb-20 15:58 32.733954 -117.190677 316 18ft 18kts
11-Feb-20 15:59 32.734808 -117.190414 86 18ft 6kts
11-Feb-20 16:00 32.733511 -117.184587 110 18ft 25kts
11-Feb-20 16:01 32.733756 -117.179301 42 18ft 8kts
11-Feb-20 16:02 32.733922 -117.178598 138 18ft 0kts
11-Feb-20 16:03 32.733921 -117.178597 138 18ft 0kts

Navigation Log

Ident Type
Flight plan parsing failed, navigation log unavailable